Time;durP1;ratioP1;P1;durP2;ratioP2;P2;SDS_P1;SDS_P2;PMS_P1;PMS_P2;Temp;Humidity;BMP_temperature;BMP_pressure;BME280_temperature;BME280_humidity;BME280_pressure;Samples;Min_cycle;Max_cycle;Signal;HPM_P1;HPM_P2
2022/12/30 00:02:23;;;;;;;14.50;7.38;;;;;;;2.56;100.00;98984.69;5139962;28;20043;-63
2022/12/30 00:04:50;;;;;;;15.25;6.72;;;;;;;2.54;100.00;98976.09;5139943;28;20047;-65
2022/12/30 00:07:16;;;;;;;15.73;6.72;;;;;;;2.23;100.00;98975.38;5139726;28;20051;-64
2022/12/30 00:09:42;;;;;;;17.55;6.35;;;;;;;2.74;100.00;98960.38;5139593;28;20115;-64
2022/12/30 00:34:11;;;;;;;14.90;6.95;;;;;;;3.13;100.00;99012.75;5139416;28;20045;-65
2022/12/30 00:36:38;;;;;;;17.40;6.72;;;;;;;2.78;100.00;99021.69;5138610;27;20055;-64
2022/12/30 00:39:05;;;;;;;16.85;6.55;;;;;;;2.85;100.00;99023.91;5139060;28;20054;-64
2022/12/30 00:44:15;;;;;;;11.48;6.28;;;;;;;2.48;100.00;99022.56;5139550;28;20045;-64
2022/12/30 00:46:43;;;;;;;9.55;5.60;;;;;;;2.42;100.00;99007.59;5139041;28;20182;-64
2022/12/30 00:57:25;;;;;;;12.70;6.53;;;;;;;2.63;100.00;98999.66;5139268;28;20053;-64
2022/12/30 00:59:51;;;;;;;13.90;6.15;;;;;;;2.99;100.00;98991.25;5138822;28;20146;-65
2022/12/30 01:02:17;;;;;;;14.10;6.75;;;;;;;3.03;100.00;99000.34;5139091;28;20051;-63
2022/12/30 01:04:44;;;;;;;13.43;7.35;;;;;;;2.92;100.00;99015.31;5138822;28;20437;-64
2022/12/30 01:07:11;;;;;;;14.82;6.95;;;;;;;3.14;100.00;99015.16;5139125;28;20479;-64
2022/12/30 01:09:37;;;;;;;16.60;7.82;;;;;;;2.80;100.00;99016.75;5138654;28;20147;-64
2022/12/30 01:12:10;;;;;;;13.07;7.05;;;;;;;3.00;100.00;99009.09;5138854;28;20130;-64
2022/12/30 01:14:38;;;;;;;14.60;6.82;;;;;;;2.65;100.00;99011.00;5138573;28;20385;-64
2022/12/30 01:17:07;;;;;;;12.95;6.72;;;;;;;2.95;100.00;99001.16;5138495;28;20050;-63
2022/12/30 01:19:33;;;;;;;17.15;7.80;;;;;;;2.74;100.00;98990.16;5138818;28;20078;-64
2022/12/30 01:22:00;;;;;;;15.23;6.57;;;;;;;2.76;100.00;98977.06;5138431;28;20086;-64
2022/12/30 01:24:27;;;;;;;12.10;6.50;;;;;;;2.87;100.00;98972.97;5138638;28;20051;-64
2022/12/30 01:26:53;;;;;;;38.80;16.23;;;;;;;2.98;100.00;98959.88;5138476;28;20051;-64
2022/12/30 01:29:22;;;;;;;17.48;7.75;;;;;;;2.52;100.00;98964.00;5138267;28;20143;-64
2022/12/30 01:31:48;;;;;;;12.10;6.88;;;;;;;2.47;100.00;98958.75;5138271;28;20076;-63
2022/12/30 01:34:15;;;;;;;14.48;7.43;;;;;;;2.67;100.00;98943.81;5138749;28;20051;-65
2022/12/30 01:36:41;;;;;;;11.57;6.32;;;;;;;2.73;100.00;98951.47;5138005;28;20055;-64
2022/12/30 01:39:07;;;;;;;11.63;6.03;;;;;;;2.60;100.00;98941.56;5138416;28;20043;-65
2022/12/30 01:41:34;;;;;;;19.40;8.25;;;;;;;2.66;100.00;98942.19;5138405;28;20381;-65
2022/12/30 01:44:20;;;;;;;15.73;6.60;;;;;;;2.91;100.00;98941.41;5138168;28;20057;-64
2022/12/30 01:46:47;;;;;;;12.45;7.15;;;;;;;2.60;100.00;98949.69;5137945;28;20047;-65
2022/12/30 01:49:13;;;;;;;12.05;7.90;;;;;;;2.75;100.00;98938.38;5136743;27;20431;-65
2022/12/30 01:51:39;;;;;;;17.02;8.23;;;;;;;2.72;100.00;98930.09;5138321;28;20412;-65
2022/12/30 01:54:08;;;;;;;13.77;7.35;;;;;;;2.52;100.00;98918.78;5138009;28;20043;-64
2022/12/30 01:56:38;;;;;;;12.63;7.32;;;;;;;2.66;100.00;98929.47;5138205;28;20108;-65
2022/12/30 01:59:10;;;;;;;14.15;7.20;;;;;;;2.96;100.00;98921.50;5137824;28;20413;-64
2022/12/30 02:01:36;;;;;;;14.57;7.75;;;;;;;3.10;100.00;98932.16;5137722;28;20137;-64
2022/12/30 02:04:07;;;;;;;15.63;7.00;;;;;;;3.05;100.00;98954.78;5138008;28;20051;-64
2022/12/30 02:06:42;;;;;;;16.23;7.55;;;;;;;2.79;100.00;98961.00;5137700;28;20451;-65
2022/12/30 02:09:08;;;;;;;;;;;;;;;2.69;100.00;98953.19;5138288;28;20370;-65
2022/12/30 02:11:34;;;;;;;14.50;7.50;;;;;;;2.83;100.00;98959.25;5137607;28;19927;-64
2022/12/30 02:14:02;;;;;;;18.80;7.68;;;;;;;2.73;100.00;98953.34;5137937;28;20079;-64
2022/12/30 02:16:42;;;;;;;13.63;7.60;;;;;;;2.76;100.00;98958.13;5137484;28;20434;-64
2022/12/30 02:19:50;;;;;;;14.35;7.38;;;;;;;2.93;100.00;98960.84;5137959;28;20433;-65
2022/12/30 02:22:27;;;;;;;18.67;8.43;;;;;;;2.95;100.00;98952.41;5137830;28;20047;-65
2022/12/30 02:25:34;;;;;;;11.85;7.72;;;;;;;2.73;100.00;98951.47;5137608;28;20548;-65
2022/12/30 02:28:46;;;;;;;12.38;7.18;;;;;;;2.91;100.00;98965.78;5137784;28;20134;-64
2022/12/30 02:31:39;;;;;;;14.15;7.32;;;;;;;3.04;100.00;98972.16;5089467;28;20138;-65
2022/12/30 02:34:14;;;;;;;15.82;8.93;;;;;;;3.10;100.00;98980.91;5137289;28;20057;-64
2022/12/30 02:36:50;;;;;;;19.75;8.60;;;;;;;3.03;100.00;98986.78;5137606;28;20145;-65
2022/12/30 02:39:25;;;;;;;18.40;9.23;;;;;;;2.87;100.00;98980.28;5137198;28;20047;-65
2022/12/30 02:44:50;;;;;;;16.67;8.68;;;;;;;2.92;100.00;98975.50;5137456;28;20430;-65
2022/12/30 02:47:21;;;;;;;;;;;;;;;3.31;100.00;98971.00;5137581;28;20051;-64
2022/12/30 02:52:33;;;;;;;18.73;9.55;;;;;;;2.87;100.00;98980.28;5136178;28;20134;-64
2022/12/30 02:55:00;;;;;;;16.73;9.00;;;;;;;3.08;100.00;98975.03;5137487;28;20047;-65
2022/12/30 02:57:28;;;;;;;17.40;10.10;;;;;;;3.20;100.00;98978.69;5137129;28;20126;-65
2022/12/30 03:06:05;;;;;;;14.70;8.38;;;;;;;3.30;100.00;98986.47;5140673;28;20327;-65
2022/12/30 03:08:37;;;;;;;15.30;9.13;;;;;;;3.49;100.00;99005.09;5140962;28;20404;-65
2022/12/30 03:11:13;;;;;;;13.93;8.50;;;;;;;3.49;100.00;99015.13;5140469;28;20416;-64
2022/12/30 03:13:46;;;;;;;20.55;9.27;;;;;;;3.20;100.00;99024.75;5140510;28;20454;-64
2022/12/30 03:16:19;;;;;;;17.63;9.27;;;;;;;3.43;100.00;99021.81;5140448;28;20047;-64
2022/12/30 03:18:51;;;;;;;15.00;7.93;;;;;;;3.50;100.00;99033.00;5140363;28;20047;-65
2022/12/30 03:21:19;;;;;;;16.55;8.55;;;;;;;3.50;100.00;99027.59;5140571;28;20043;-64
2022/12/30 03:29:23;;;;;;;16.00;9.45;;;;;;;3.65;100.00;99042.53;5140323;28;20049;-64
2022/12/30 03:31:50;;;;;;;19.70;9.70;;;;;;;3.66;100.00;99039.50;5140153;28;20111;-65
2022/12/30 03:34:17;;;;;;;19.42;8.63;;;;;;;3.63;100.00;99039.34;5140233;28;20049;-65
2022/12/30 03:36:48;;;;;;;17.63;9.45;;;;;;;3.44;100.00;99037.00;5140195;28;20111;-64
2022/12/30 03:39:18;;;;;;;17.33;8.88;;;;;;;3.47;100.00;99037.16;5140292;28;20051;-65
2022/12/30 03:41:47;;;;;;;14.57;9.05;;;;;;;3.69;100.00;99038.84;5140119;28;20051;-64
2022/12/30 03:44:13;;;;;;;15.00;8.60;;;;;;;3.53;100.00;99038.56;5140441;28;20047;-65
2022/12/30 03:46:41;;;;;;;16.38;8.95;;;;;;;3.41;100.00;99033.00;5140021;28;20051;-65
2022/12/30 03:49:08;;;;;;;15.63;9.13;;;;;;;3.40;100.00;99025.19;5140385;28;20434;-65
2022/12/30 03:51:37;;;;;;;22.75;8.63;;;;;;;3.52;100.00;99018.00;5139908;28;20332;-64
2022/12/30 03:54:03;;;;;;;16.52;9.00;;;;;;;3.72;100.00;99008.38;5139763;28;20051;-65
2022/12/30 03:56:30;;;;;;;16.25;10.20;;;;;;;3.54;100.00;99017.69;5139776;28;20043;-64
2022/12/30 03:58:56;;;;;;;20.50;10.43;;;;;;;3.55;100.00;99019.28;5139984;28;20055;-65
2022/12/30 04:01:22;;;;;;;17.92;9.30;;;;;;;3.51;100.00;99011.00;5140054;28;20047;-64
2022/12/30 04:03:48;;;;;;;18.50;8.77;;;;;;;3.42;100.00;99004.78;5139868;28;20043;-65
2022/12/30 04:06:15;;;;;;;17.48;8.70;;;;;;;3.42;100.00;99018.31;5140051;28;20085;-64
2022/12/30 04:08:41;;;;;;;17.63;9.30;;;;;;;3.54;100.00;99023.09;5139731;28;20057;-65
2022/12/30 04:11:08;;;;;;;19.05;9.90;;;;;;;3.65;100.00;99012.72;5139784;27;20057;-64
2022/12/30 04:13:34;;;;;;;21.55;9.32;;;;;;;3.84;100.00;99018.56;5138618;28;20051;-65
2022/12/30 04:16:00;;;;;;;23.33;11.52;;;;;;;3.85;100.00;99017.44;5139837;28;20094;-64
2022/12/30 04:18:27;;;;;;;18.75;9.77;;;;;;;4.00;100.00;99029.69;5139405;28;20101;-64
2022/12/30 04:20:53;;;;;;;21.73;10.50;;;;;;;3.97;100.00;99024.94;5139912;28;20050;-65
2022/12/30 04:23:19;;;;;;;20.17;10.25;;;;;;;3.86;100.00;99040.72;5139369;28;20083;-64
2022/12/30 04:25:46;;;;;;;18.90;9.27;;;;;;;3.86;100.00;99039.94;5139547;28;20109;-65
2022/12/30 04:28:12;;;;;;;16.50;9.63;;;;;;;3.97;100.00;99031.13;5139327;28;20192;-64
2022/12/30 04:30:39;;;;;;;20.30;9.80;;;;;;;3.71;100.00;99038.53;5139206;28;20438;-65
2022/12/30 04:33:05;;;;;;;20.02;9.85;;;;;;;3.64;100.00;99046.38;5139343;28;20057;-64
2022/12/30 04:35:31;;;;;;;19.17;9.90;;;;;;;4.04;100.00;99049.63;5139207;28;20047;-65
2022/12/30 04:37:57;;;;;;;20.90;10.98;;;;;;;3.87;100.00;99050.47;5139459;28;20059;-65
2022/12/30 04:40:27;;;;;;;19.70;9.95;;;;;;;4.05;100.00;99042.28;5139174;28;20332;-65
2022/12/30 04:42:54;;;;;;;20.25;9.85;;;;;;;4.15;100.00;99045.44;5139424;28;20043;-65
2022/12/30 04:45:20;;;;;;;18.20;10.13;;;;;;;3.80;100.00;99047.47;5139123;28;20335;-64
2022/12/30 04:47:46;;;;;;;20.10;10.02;;;;;;;3.56;100.00;99064.22;5139373;28;20079;-65
2022/12/30 04:50:12;;;;;;;19.55;10.27;;;;;;;4.04;100.00;99067.81;5138877;28;20427;-65
2022/12/30 04:52:39;;;;;;;22.02;10.05;;;;;;;4.11;100.00;99071.63;5138866;28;20051;-66
2022/12/30 04:55:06;;;;;;;20.95;10.65;;;;;;;3.90;100.00;99073.41;5139042;28;20078;-65
2022/12/30 04:57:32;;;;;;;25.73;10.55;;;;;;;3.93;100.00;99075.50;5138743;28;20390;-65
2022/12/30 04:59:59;;;;;;;21.85;9.35;;;;;;;3.78;100.00;99065.97;5138684;28;20061;-65
2022/12/30 05:02:26;;;;;;;20.85;9.95;;;;;;;3.60;100.00;99075.22;5138771;28;20110;-65
2022/12/30 05:04:52;;;;;;;18.50;10.05;;;;;;;3.69;100.00;99071.38;5138743;28;20051;-64
2022/12/30 05:07:18;;;;;;;16.10;9.70;;;;;;;4.00;100.00;99075.81;5138665;28;20051;-65
2022/12/30 05:09:44;;;;;;;20.95;10.80;;;;;;;3.88;100.00;99073.75;5138912;28;20073;-64
2022/12/30 05:12:11;;;;;;;21.65;10.38;;;;;;;4.01;100.00;99080.13;5138469;28;20133;-65
2022/12/30 05:14:37;;;;;;;20.65;10.40;;;;;;;3.84;100.00;99070.09;5138862;28;20072;-64
2022/12/30 05:17:04;;;;;;;22.50;11.00;;;;;;;3.71;100.00;99071.09;5138355;28;20405;-65
2022/12/30 05:19:31;;;;;;;16.35;9.35;;;;;;;3.98;100.00;99069.91;5138538;28;20051;-65
2022/12/30 05:21:57;;;;;;;18.10;10.20;;;;;;;4.18;100.00;99052.13;5138281;28;20139;-65
2022/12/30 05:27:07;;;;;;;18.77;9.93;;;;;;;4.20;100.00;99031.69;5138488;28;20065;-64
2022/12/30 05:29:33;;;;;;;20.92;10.65;;;;;;;4.16;100.00;99025.31;5138347;28;20187;-64
2022/12/30 05:32:00;;;;;;;18.92;10.10;;;;;;;4.16;100.00;99010.94;5138430;28;20129;-64
2022/12/30 05:34:27;;;;;;;19.92;10.80;;;;;;;4.04;100.00;99008.94;5138149;28;20444;-65
2022/12/30 05:36:53;;;;;;;22.60;10.20;;;;;;;3.97;100.00;99001.31;5138458;28;20047;-64
2022/12/30 05:39:19;;;;;;;25.17;10.70;;;;;;;4.01;100.00;99009.59;5137945;28;20420;-64
2022/12/30 05:41:46;;;;;;;22.27;10.32;;;;;;;4.03;100.00;99006.53;5138412;28;20396;-62
2022/12/30 05:44:12;;;;;;;21.05;9.82;;;;;;;4.06;100.00;99014.03;5137839;28;20057;-63
2022/12/30 05:46:38;;;;;;;26.45;11.27;;;;;;;3.89;100.00;99012.16;5138150;28;20109;-62
2022/12/30 05:49:04;;;;;;;23.50;10.68;;;;;;;3.82;100.00;99014.59;5137853;28;20051;-66
2022/12/30 05:51:31;;;;;;;22.08;10.77;;;;;;;3.66;100.00;99020.50;5138122;28;20162;-63
2022/12/30 05:53:58;;;;;;;19.20;10.23;;;;;;;3.57;100.00;99025.19;5138111;28;20336;-64
2022/12/30 05:56:24;;;;;;;21.63;10.93;;;;;;;3.44;100.00;99029.66;5137864;28;20073;-63
2022/12/30 05:58:50;;;;;;;27.55;11.68;;;;;;;3.32;100.00;99053.09;5137893;28;20054;-62
2022/12/30 06:01:16;;;;;;;24.38;12.25;;;;;;;3.21;100.00;99058.03;5137576;28;20180;-60
2022/12/30 06:03:42;;;;;;;23.45;11.18;;;;;;;3.20;100.00;99065.38;5138036;28;20377;-63
2022/12/30 06:06:10;;;;;;;26.52;13.30;;;;;;;3.11;100.00;99078.09;5137381;28;20055;-62
2022/12/30 06:08:37;;;;;;;25.88;13.50;;;;;;;3.01;100.00;99084.63;5137472;28;20055;-65
2022/12/30 06:11:04;;;;;;;44.05;19.00;;;;;;;3.04;100.00;99091.31;5137473;28;20047;-64
2022/12/30 06:13:30;;;;;;;42.20;18.55;;;;;;;3.00;100.00;99088.44;5137836;28;20099;-63
2022/12/30 06:15:57;;;;;;;42.33;23.02;;;;;;;2.94;100.00;99089.72;5137558;28;20115;-63
2022/12/30 06:18:25;;;;;;;42.67;20.17;;;;;;;3.07;100.00;99098.81;5137276;28;20085;-63
2022/12/30 06:20:51;;;;;;;45.55;18.92;;;;;;;3.09;100.00;99087.66;5137412;28;20058;-62
2022/12/30 06:23:17;;;;;;;34.85;16.92;;;;;;;3.10;100.00;99084.66;5137452;28;20134;-63
2022/12/30 06:25:44;;;;;;;38.05;18.42;;;;;;;3.20;100.00;99078.09;5137298;28;20086;-63
2022/12/30 06:28:11;;;;;;;34.28;15.73;;;;;;;3.11;100.00;99069.97;5137168;28;20142;-63
2022/12/30 06:30:37;;;;;;;41.83;18.92;;;;;;;3.09;100.00;99083.03;5137490;28;20043;-63
2022/12/30 06:33:03;;;;;;;39.13;17.83;;;;;;;3.11;100.00;99085.44;5136955;28;20173;-63
2022/12/30 06:35:29;;;;;;;40.42;20.67;;;;;;;3.15;100.00;99097.22;5136650;27;20137;-65
2022/12/30 06:37:56;;;;;;;40.92;19.13;;;;;;;3.17;100.00;99100.44;5137079;28;20047;-64
2022/12/30 06:40:22;;;;;;;42.28;21.23;;;;;;;3.18;100.00;99100.09;5137496;28;20323;-65
2022/12/30 06:42:49;;;;;;;42.15;21.63;;;;;;;3.01;100.00;99098.16;5136865;28;20146;-63
2022/12/30 06:45:15;;;;;;;38.40;17.65;;;;;;;3.21;100.00;99085.13;5136879;28;20057;-66
2022/12/30 06:47:42;;;;;;;33.88;16.52;;;;;;;3.10;100.00;99105.50;5136947;28;20051;-63
2022/12/30 06:50:09;;;;;;;33.85;17.02;;;;;;;3.27;100.00;99098.19;5136853;28;20079;-64
2022/12/30 06:52:35;;;;;;;34.53;17.42;;;;;;;3.33;100.00;99104.25;5136877;28;20053;-63
2022/12/30 06:55:01;;;;;;;32.88;15.60;;;;;;;3.40;100.00;99106.47;5136831;28;20047;-64
2022/12/30 06:57:27;;;;;;;36.13;16.88;;;;;;;3.38;100.00;99103.31;5136812;28;20392;-63
2022/12/30 06:59:54;;;;;;;44.17;19.85;;;;;;;3.53;100.00;99109.06;5136719;28;20123;-63
2022/12/30 07:02:20;;;;;;;42.38;18.33;;;;;;;3.53;100.00;99114.47;5136797;28;20054;-63
2022/12/30 07:04:47;;;;;;;41.90;18.42;;;;;;;3.50;100.00;99128.66;5136561;28;20115;-64
2022/12/30 07:07:13;;;;;;;39.28;17.23;;;;;;;3.46;100.00;99119.56;5136946;28;20047;-64
2022/12/30 07:09:40;;;;;;;42.80;17.48;;;;;;;3.56;100.00;99118.44;5136653;28;20375;-64
2022/12/30 07:12:06;;;;;;;38.72;17.05;;;;;;;3.62;100.00;99133.44;5137004;28;20443;-64
2022/12/30 07:14:32;;;;;;;37.72;17.30;;;;;;;3.53;100.00;99129.91;5136508;28;20381;-63
2022/12/30 07:16:59;;;;;;;39.53;18.13;;;;;;;3.56;100.00;99128.50;5136332;28;20114;-63
2022/12/30 07:19:26;;;;;;;33.40;16.95;;;;;;;3.70;100.00;99129.94;5136714;28;20055;-65
2022/12/30 07:21:53;;;;;;;31.23;16.05;;;;;;;3.69;100.00;99132.94;5136576;28;20092;-64
2022/12/30 07:24:19;;;;;;;39.50;17.33;;;;;;;3.77;100.00;99126.75;5136390;28;20138;-65
2022/12/30 07:26:45;;;;;;;37.92;16.88;;;;;;;3.72;100.00;99137.72;5136155;28;20051;-64
2022/12/30 07:29:12;;;;;;;27.83;16.05;;;;;;;3.79;100.00;99138.03;5136418;28;20047;-66
2022/12/30 07:31:39;;;;;;;32.63;15.60;;;;;;;3.90;100.00;99136.63;5136370;28;20058;-63
2022/12/30 07:34:06;;;;;;;26.45;14.40;;;;;;;3.73;100.00;99147.47;5136868;28;20310;-64
2022/12/30 07:36:32;;;;;;;28.33;15.13;;;;;;;3.85;100.00;99152.25;5136158;28;20119;-63
2022/12/30 07:38:59;;;;;;;29.67;16.13;;;;;;;3.94;100.00;99153.84;5136630;28;20051;-64
2022/12/30 07:41:25;;;;;;;30.92;16.02;;;;;;;4.04;100.00;99147.28;5136120;28;20145;-64
2022/12/30 07:43:52;;;;;;;34.03;16.00;;;;;;;4.20;100.00;99140.22;5136258;28;20061;-63
2022/12/30 07:46:19;;;;;;;47.70;22.08;;;;;;;4.24;100.00;99141.19;5137098;27;20107;-67
2022/12/30 07:48:45;;;;;;;69.13;29.42;;;;;;;4.25;100.00;99150.09;5139686;28;20071;-63
2022/12/30 07:51:14;;;;;;;39.83;22.92;;;;;;;4.02;100.00;99152.22;5139703;28;20047;-66
2022/12/30 07:53:41;;;;;;;33.72;16.45;;;;;;;4.14;100.00;99155.09;5139229;28;20047;-64
2022/12/30 07:56:10;;;;;;;29.25;15.32;;;;;;;4.05;100.00;99151.59;5139650;28;20408;-64
2022/12/30 07:58:36;;;;;;;27.77;14.70;;;;;;;4.41;100.00;99148.47;5139505;28;20051;-66
2022/12/30 08:01:03;;;;;;;27.88;14.90;;;;;;;4.38;100.00;99146.41;5139645;28;20047;-66
2022/12/30 08:03:30;;;;;;;34.08;13.48;;;;;;;4.28;100.00;99135.91;5139318;28;20089;-65
2022/12/30 08:05:56;;;;;;;34.60;13.80;;;;;;;4.31;100.00;99135.25;5139907;28;20115;-68
2022/12/30 08:08:26;;;;;;;29.95;13.50;;;;;;;4.23;100.00;99120.59;5139262;28;20063;-64
2022/12/30 08:10:56;;;;;;;32.60;13.38;;;;;;;4.33;100.00;99140.34;5139539;28;20377;-68
2022/12/30 08:13:22;;;;;;;31.08;13.02;;;;;;;4.65;100.00;99119.97;5139180;28;20051;-64
2022/12/30 08:15:49;;;;;;;23.77;13.32;;;;;;;4.47;100.00;99090.16;5139276;28;20332;-62
2022/12/30 08:18:15;;;;;;;30.95;14.13;;;;;;;4.60;100.00;99082.94;5139831;28;20133;-65
2022/12/30 08:20:41;;;;;;;29.48;14.82;;;;;;;4.61;100.00;99070.94;5139619;28;20051;-64
2022/12/30 08:23:07;;;;;;;29.92;14.77;;;;;;;4.57;100.00;99066.50;5139260;28;20047;-67
2022/12/30 08:25:34;;;;;;;29.70;14.50;;;;;;;4.61;100.00;99070.94;5139016;28;20051;-65
2022/12/30 08:28:01;;;;;;;27.13;13.23;;;;;;;4.57;100.00;99052.94;5139336;28;20134;-66
2022/12/30 08:30:27;;;;;;;32.22;13.90;;;;;;;4.55;100.00;99053.25;5138874;28;20080;-64
2022/12/30 08:32:53;;;;;;;24.92;13.60;;;;;;;4.58;100.00;99082.44;5139555;28;20066;-67
2022/12/30 08:35:20;;;;;;;24.05;13.38;;;;;;;4.46;100.00;99101.34;5138842;28;20047;-67
2022/12/30 08:37:46;;;;;;;29.80;14.43;;;;;;;4.43;100.00;99116.38;5139131;28;20051;-66
2022/12/30 08:40:12;;;;;;;27.80;13.93;;;;;;;4.56;100.00;99122.69;5138836;28;20424;-70
2022/12/30 08:42:39;;;;;;;29.30;14.23;;;;;;;4.69;100.00;99118.97;5138688;28;20050;-65
2022/12/30 08:45:07;;;;;;;27.83;13.77;;;;;;;4.48;100.00;99123.53;5139012;28;20047;-66
2022/12/30 08:47:33;;;;;;;29.45;14.55;;;;;;;4.64;100.00;99131.94;5138847;28;20061;-66
2022/12/30 08:49:59;;;;;;;31.45;15.00;;;;;;;4.88;100.00;99134.06;5138987;28;20061;-64
2022/12/30 08:52:27;;;;;;;33.92;14.52;;;;;;;4.89;100.00;99103.84;5138597;28;20384;-66
2022/12/30 08:54:53;;;;;;;30.60;13.75;;;;;;;4.60;100.00;99096.50;5138956;28;20051;-67
2022/12/30 08:57:19;;;;;;;29.80;14.57;;;;;;;5.08;100.00;99121.66;5138389;28;20370;-66
2022/12/30 08:59:46;;;;;;;23.50;13.18;;;;;;;4.93;100.00;99065.94;5138504;27;20047;-67
2022/12/30 09:02:13;;;;;;;27.45;13.40;;;;;;;4.75;100.00;99059.03;5138526;28;20047;-65
2022/12/30 09:04:40;;;;;;;30.35;13.40;;;;;;;4.94;100.00;99045.81;5138803;28;20051;-65
2022/12/30 09:07:06;;;;;;;25.13;13.15;;;;;;;5.36;100.00;99043.88;5138690;28;20055;-64
2022/12/30 09:09:33;;;;;;;29.95;14.32;;;;;;;4.67;100.00;99025.41;5138575;28;20047;-67
2022/12/30 09:11:59;;;;;;;27.55;13.45;;;;;;;4.75;100.00;99053.63;5138397;28;20073;-68
2022/12/30 09:14:26;;;;;;;31.55;14.35;;;;;;;4.85;100.00;99051.31;5138542;28;20376;-66
2022/12/30 09:16:53;;;;;;;24.98;14.18;;;;;;;4.66;100.00;99024.56;5138510;28;20142;-64
2022/12/30 09:19:19;;;;;;;27.42;14.13;;;;;;;4.69;100.00;99034.78;5138148;28;20043;-63
2022/12/30 09:21:45;;;;;;;26.90;13.23;;;;;;;4.59;100.00;99037.88;5138444;28;20122;-66
2022/12/30 09:24:12;;;;;;;31.52;14.45;;;;;;;4.87;100.00;99045.56;5138181;28;20143;-65
2022/12/30 09:26:38;;;;;;;33.05;14.70;;;;;;;5.02;100.00;99025.16;5138740;28;20051;-65
2022/12/30 09:29:04;;;;;;;27.92;14.57;;;;;;;5.12;100.00;98992.16;5138144;28;20130;-65
2022/12/30 09:31:30;;;;;;;26.75;13.93;;;;;;;4.97;100.00;98966.38;5138554;28;20043;-65
2022/12/30 09:33:57;;;;;;;30.00;13.68;;;;;;;4.72;100.00;98979.81;5137764;28;20042;-68
2022/12/30 09:36:24;;;;;;;28.25;13.52;;;;;;;4.93;100.00;98992.59;5137857;28;20384;-64
2022/12/30 09:38:50;;;;;;;26.77;13.18;;;;;;;5.21;100.00;98951.31;5138260;28;20047;-64
2022/12/30 09:44:20;;;;;;;29.77;14.63;;;;;;;4.92;100.00;98923.91;5137112;28;20112;-65
2022/12/30 09:46:50;;;;;;;25.63;12.85;;;;;;;5.20;100.00;98942.38;5137867;28;20055;-68
2022/12/30 09:49:25;;;;;;;30.20;14.43;;;;;;;5.28;100.00;98922.44;5138108;28;20057;-67
2022/12/30 09:51:58;;;;;;;29.85;13.80;;;;;;;5.05;100.00;98910.38;5137628;28;20175;-70
2022/12/30 09:54:27;;;;;;;37.83;18.48;;;;;;;5.00;100.00;98938.56;5137472;28;20043;-66
2022/12/30 09:57:30;;;;;;;26.52;14.50;;;;;;;5.36;100.00;98945.22;5137160;27;20051;-66
2022/12/30 09:59:49;;;;;;;25.90;13.75;;;;;;;5.58;100.00;98892.38;5137264;28;20059;-63
2022/12/30 10:02:21;;;;;;;25.42;12.88;;;;;;;5.18;100.00;98861.16;5137489;28;20127;-66
2022/12/30 10:04:48;;;;;;;25.88;13.05;;;;;;;5.36;100.00;98885.44;5137507;28;20105;-62
2022/12/30 10:07:22;;;;;;;25.38;12.73;;;;;;;5.23;100.00;98833.00;5137071;28;20142;-63
2022/12/30 10:09:53;;;;;;;21.77;12.40;;;;;;;4.83;100.00;98847.16;5136113;27;20051;-65
2022/12/30 10:12:32;;;;;;;28.95;13.65;;;;;;;5.33;100.00;98886.09;5136362;28;20110;-64
2022/12/30 10:15:21;;;;;;;26.55;14.07;;;;;;;5.36;100.00;98882.72;5137597;28;20051;-64
2022/12/30 10:18:10;;;;;;;26.05;13.20;;;;;;;5.28;100.00;98840.91;5136924;28;20051;-65
2022/12/30 10:20:51;;;;;;;24.20;12.50;;;;;;;5.00;100.00;98896.97;5137539;28;20055;-64
2022/12/30 10:23:34;;;;;;;27.88;14.05;;;;;;;5.30;100.00;98965.59;5137121;28;20047;-65
2022/12/30 10:26:11;;;;;;;38.30;19.60;;;;;;;5.15;100.00;98893.66;5137496;28;20062;-63
2022/12/30 10:28:42;;;;;;;22.90;11.85;;;;;;;4.82;100.00;98929.75;5137183;28;20061;-64
2022/12/30 10:31:18;;;;;;;25.40;12.93;;;;;;;4.98;100.00;98948.94;5136781;28;20086;-63
2022/12/30 10:33:46;;;;;;;27.05;13.18;;;;;;;5.39;100.00;98956.22;5137471;28;20098;-66
2022/12/30 10:36:17;;;;;;;29.45;13.75;;;;;;;4.98;100.00;98964.47;5136873;28;20141;-66
2022/12/30 10:38:43;;;;;;;36.35;13.82;;;;;;;5.43;100.00;98964.50;5137349;28;20092;-65
2022/12/30 10:41:29;;;;;;;26.13;13.05;;;;;;;5.32;100.00;98917.94;5136978;28;20405;-64
2022/12/30 10:44:09;;;;;;;34.80;13.32;;;;;;;5.60;100.00;98920.06;5136965;28;20447;-64
2022/12/30 10:46:49;;;;;;;27.25;12.57;;;;;;;5.78;100.00;98875.19;5137037;28;20050;-65
2022/12/30 10:49:47;;;;;;;23.10;12.10;;;;;;;5.80;100.00;98772.28;5137070;28;20149;-63
2022/12/30 10:52:16;;;;;;;27.98;13.38;;;;;;;5.85;100.00;98744.81;5131575;28;20047;-65
2022/12/30 10:54:44;;;;;;;22.27;12.88;;;;;;;5.45;100.00;98731.16;5136843;28;20055;-65
2022/12/30 10:57:14;;;;;;;29.75;14.00;;;;;;;5.35;100.00;98745.22;5137143;28;20146;-64
2022/12/30 10:59:41;;;;;;;24.67;13.02;;;;;;;5.23;100.00;98770.50;5137088;28;20051;-63
2022/12/30 11:02:16;;;;;;;28.25;13.05;;;;;;;5.48;100.00;98798.47;5136596;28;20055;-63
2022/12/30 11:04:43;;;;;;;27.23;14.30;;;;;;;5.17;100.00;98774.56;5136790;28;20059;-62
2022/12/30 11:07:11;;;;;;;22.83;12.13;;;;;;;5.13;100.00;98857.84;5136671;28;20057;-63
2022/12/30 11:09:39;;;;;;;27.42;13.20;;;;;;;5.08;100.00;98918.66;5137009;28;20047;-64
2022/12/30 11:15:08;;;;;;;27.15;12.77;;;;;;;4.91;100.00;98926.97;5137274;28;20129;-65
2022/12/30 11:17:41;;;;;;;24.95;12.52;;;;;;;4.68;100.00;98980.81;5136752;28;20051;-65
2022/12/30 11:20:24;;;;;;;27.38;13.65;;;;;;;4.78;100.00;99013.00;5136457;28;20047;-65
2022/12/30 11:22:52;;;;;;;24.38;12.70;;;;;;;4.59;100.00;99040.59;5139692;27;20051;-65
2022/12/30 11:25:27;;;;;;;22.60;11.68;;;;;;;4.66;100.00;99043.59;5140054;28;20051;-63
2022/12/30 11:27:56;;;;;;;27.60;13.90;;;;;;;4.61;100.00;99043.78;5140523;28;20051;-65
2022/12/30 11:30:25;;;;;;;29.42;12.65;;;;;;;4.70;100.00;99038.31;5139846;28;20410;-64
2022/12/30 11:32:52;;;;;;;21.23;11.52;;;;;;;4.48;100.00;99036.66;5140193;28;20285;-64
2022/12/30 11:35:32;;;;;;;26.80;13.82;;;;;;;4.54;100.00;99051.66;5139867;28;20047;-66
2022/12/30 11:37:59;;;;;;;27.60;13.10;;;;;;;4.63;100.00;99076.03;5140260;28;20055;-63
2022/12/30 11:40:30;;;;;;;24.95;13.00;;;;;;;4.75;100.00;99092.44;5138774;27;20138;-66
2022/12/30 11:43:12;;;;;;;28.33;14.02;;;;;;;4.82;100.00;99064.75;5140107;28;20374;-64
2022/12/30 11:45:41;;;;;;;32.00;15.30;;;;;;;4.70;100.00;99055.41;5139900;28;20047;-64
2022/12/30 11:48:19;;;;;;;28.20;14.90;;;;;;;4.49;100.00;99074.34;5139973;28;20087;-64
2022/12/30 11:50:52;;;;;;;26.65;13.35;;;;;;;4.36;100.00;99074.56;5139848;28;20047;-65
2022/12/30 11:53:18;;;;;;;26.73;13.70;;;;;;;4.34;100.00;99095.81;5139602;28;20043;-63
2022/12/30 11:55:51;;;;;;;33.63;12.98;;;;;;;4.66;100.00;99108.75;5139743;28;20141;-63
2022/12/30 11:58:18;;;;;;;26.75;13.60;;;;;;;4.58;100.00;99098.75;5139498;27;20138;-64
2022/12/30 12:00:46;;;;;;;27.65;13.95;;;;;;;4.55;100.00;99085.03;5139643;28;20051;-65
2022/12/30 12:03:15;;;;;;;30.02;13.57;;;;;;;4.43;100.00;99094.66;5139331;28;20055;-65
2022/12/30 12:05:42;;;;;;;29.98;14.75;;;;;;;4.58;100.00;99111.53;5139609;28;20464;-63
2022/12/30 12:08:18;;;;;;;23.88;13.55;;;;;;;4.32;100.00;99111.63;5139660;27;20058;-63
2022/12/30 12:10:52;;;;;;;29.20;15.32;;;;;;;4.18;100.00;99117.25;5139348;28;20084;-63
2022/12/30 12:13:26;;;;;;;36.13;15.25;;;;;;;3.93;100.00;99110.75;5139823;28;20274;-62
2022/12/30 12:15:55;;;;;;;34.47;15.60;;;;;;;4.06;100.00;99089.97;5139219;27;20055;-64
2022/12/30 12:18:27;;;;;;;37.00;16.50;;;;;;;4.01;100.00;99064.63;5139486;28;20111;-65
2022/12/30 12:21:04;;;;;;;27.25;14.80;;;;;;;3.68;100.00;99048.09;5139393;28;20050;-63
2022/12/30 12:23:45;;;;;;;33.92;14.93;;;;;;;3.70;100.00;99013.34;5139535;28;20115;-64
2022/12/30 12:26:17;;;;;;;31.83;15.95;;;;;;;3.98;100.00;98991.25;5139756;28;20118;-62
2022/12/30 12:28:45;;;;;;;38.90;16.67;;;;;;;4.22;100.00;98991.44;5139306;28;20077;-63